sensor_id;sensor_type;location;lat;lon;timestamp;P1;durP1;ratioP1;P2;durP2;ratioP2
35969;SDS011;22448;51.298;6.430;2023-03-24T00:01:06;5.57;;;2.70;;
35969;SDS011;22448;51.298;6.430;2023-03-24T00:03:33;5.90;;;2.95;;
35969;SDS011;22448;51.298;6.430;2023-03-24T00:06:02;4.13;;;2.38;;
35969;SDS011;22448;51.298;6.430;2023-03-24T00:08:31;9.95;;;2.92;;
35969;SDS011;22448;51.298;6.430;2023-03-24T00:11:02;5.43;;;2.60;;
35969;SDS011;22448;51.298;6.430;2023-03-24T00:13:34;4.63;;;2.78;;
35969;SDS011;22448;51.298;6.430;2023-03-24T00:16:05;7.32;;;3.05;;
35969;SDS011;22448;51.298;6.430;2023-03-24T00:18:35;5.90;;;2.65;;
35969;SDS011;22448;51.298;6.430;2023-03-24T00:21:04;4.43;;;2.72;;
35969;SDS011;22448;51.298;6.430;2023-03-24T00:23:32;3.92;;;2.20;;
35969;SDS011;22448;51.298;6.430;2023-03-24T00:26:01;5.60;;;2.50;;
35969;SDS011;22448;51.298;6.430;2023-03-24T00:28:29;4.32;;;2.05;;
35969;SDS011;22448;51.298;6.430;2023-03-24T00:30:59;4.50;;;2.55;;
35969;SDS011;22448;51.298;6.430;2023-03-24T00:33:28;4.00;;;2.72;;
35969;SDS011;22448;51.298;6.430;2023-03-24T00:36:01;5.50;;;2.95;;
35969;SDS011;22448;51.298;6.430;2023-03-24T00:38:33;7.93;;;2.50;;
35969;SDS011;22448;51.298;6.430;2023-03-24T00:41:00;4.85;;;2.63;;
35969;SDS011;22448;51.298;6.430;2023-03-24T00:43:28;3.63;;;2.67;;
35969;SDS011;22448;51.298;6.430;2023-03-24T00:46:03;3.63;;;2.30;;
35969;SDS011;22448;51.298;6.430;2023-03-24T00:48:36;7.95;;;2.40;;
35969;SDS011;22448;51.298;6.430;2023-03-24T00:51:04;3.30;;;2.42;;
35969;SDS011;22448;51.298;6.430;2023-03-24T00:53:36;5.38;;;2.67;;
35969;SDS011;22448;51.298;6.430;2023-03-24T00:56:09;4.15;;;2.50;;
35969;SDS011;22448;51.298;6.430;2023-03-24T00:58:41;3.67;;;2.50;;
35969;SDS011;22448;51.298;6.430;2023-03-24T01:01:08;4.82;;;2.92;;
35969;SDS011;22448;51.298;6.430;2023-03-24T01:03:35;5.45;;;3.03;;
35969;SDS011;22448;51.298;6.430;2023-03-24T01:06:08;3.80;;;2.50;;
35969;SDS011;22448;51.298;6.430;2023-03-24T01:08:36;7.47;;;3.17;;
35969;SDS011;22448;51.298;6.430;2023-03-24T01:11:04;3.83;;;2.72;;
35969;SDS011;22448;51.298;6.430;2023-03-24T01:13:32;8.27;;;3.05;;
35969;SDS011;22448;51.298;6.430;2023-03-24T01:15:59;3.85;;;2.58;;
35969;SDS011;22448;51.298;6.430;2023-03-24T01:18:27;3.63;;;2.78;;
35969;SDS011;22448;51.298;6.430;2023-03-24T01:20:54;7.65;;;3.00;;
35969;SDS011;22448;51.298;6.430;2023-03-24T01:23:22;4.32;;;3.03;;
35969;SDS011;22448;51.298;6.430;2023-03-24T01:25:51;5.60;;;2.70;;
35969;SDS011;22448;51.298;6.430;2023-03-24T01:28:21;4.72;;;2.65;;
35969;SDS011;22448;51.298;6.430;2023-03-24T01:30:51;3.40;;;2.60;;
35969;SDS011;22448;51.298;6.430;2023-03-24T01:33:19;6.88;;;3.20;;
35969;SDS011;22448;51.298;6.430;2023-03-24T01:35:46;5.53;;;2.70;;
35969;SDS011;22448;51.298;6.430;2023-03-24T01:38:14;5.85;;;3.05;;
35969;SDS011;22448;51.298;6.430;2023-03-24T01:40:42;4.00;;;2.95;;
35969;SDS011;22448;51.298;6.430;2023-03-24T01:43:22;8.02;;;3.45;;
35969;SDS011;22448;51.298;6.430;2023-03-24T01:45:58;6.40;;;3.50;;
35969;SDS011;22448;51.298;6.430;2023-03-24T01:48:36;6.93;;;2.85;;
35969;SDS011;22448;51.298;6.430;2023-03-24T01:56:23;5.90;;;3.25;;
35969;SDS011;22448;51.298;6.430;2023-03-24T01:58:55;5.32;;;3.05;;
35969;SDS011;22448;51.298;6.430;2023-03-24T02:01:39;4.70;;;3.03;;
35969;SDS011;22448;51.298;6.430;2023-03-24T02:04:32;4.07;;;3.20;;
35969;SDS011;22448;51.298;6.430;2023-03-24T02:07:19;10.48;;;3.50;;
35969;SDS011;22448;51.298;6.430;2023-03-24T02:10:04;4.18;;;2.83;;
35969;SDS011;22448;51.298;6.430;2023-03-24T02:12:34;6.95;;;3.25;;
35969;SDS011;22448;51.298;6.430;2023-03-24T02:15:04;5.40;;;3.22;;
35969;SDS011;22448;51.298;6.430;2023-03-24T02:27:27;5.07;;;3.78;;
35969;SDS011;22448;51.298;6.430;2023-03-24T02:37:40;6.00;;;3.50;;
35969;SDS011;22448;51.298;6.430;2023-03-24T02:45:38;8.10;;;3.90;;
35969;SDS011;22448;51.298;6.430;2023-03-24T03:02:18;4.43;;;2.92;;
35969;SDS011;22448;51.298;6.430;2023-03-24T03:08:11;6.57;;;2.90;;
35969;SDS011;22448;51.298;6.430;2023-03-24T03:10:43;3.72;;;2.60;;
35969;SDS011;22448;51.298;6.430;2023-03-24T03:13:15;4.10;;;2.67;;
35969;SDS011;22448;51.298;6.430;2023-03-24T03:16:17;3.83;;;2.63;;
35969;SDS011;22448;51.298;6.430;2023-03-24T03:18:55;8.88;;;3.25;;
35969;SDS011;22448;51.298;6.430;2023-03-24T03:21:28;4.45;;;3.17;;
35969;SDS011;22448;51.298;6.430;2023-03-24T03:24:02;4.88;;;2.47;;
35969;SDS011;22448;51.298;6.430;2023-03-24T03:26:34;5.32;;;2.42;;
35969;SDS011;22448;51.298;6.430;2023-03-24T03:29:13;4.13;;;2.70;;
35969;SDS011;22448;51.298;6.430;2023-03-24T03:40:24;5.07;;;2.97;;
35969;SDS011;22448;51.298;6.430;2023-03-24T03:43:13;13.57;;;3.78;;
35969;SDS011;22448;51.298;6.430;2023-03-24T03:45:40;7.63;;;2.75;;
35969;SDS011;22448;51.298;6.430;2023-03-24T03:48:08;6.03;;;3.40;;
35969;SDS011;22448;51.298;6.430;2023-03-24T03:50:36;5.68;;;3.15;;
35969;SDS011;22448;51.298;6.430;2023-03-24T03:53:06;4.68;;;2.90;;
35969;SDS011;22448;51.298;6.430;2023-03-24T03:55:34;5.00;;;2.72;;
35969;SDS011;22448;51.298;6.430;2023-03-24T03:58:02;5.03;;;3.10;;
35969;SDS011;22448;51.298;6.430;2023-03-24T04:00:36;6.05;;;3.78;;
35969;SDS011;22448;51.298;6.430;2023-03-24T04:03:40;4.80;;;3.05;;
35969;SDS011;22448;51.298;6.430;2023-03-24T04:06:17;6.28;;;3.90;;
35969;SDS011;22448;51.298;6.430;2023-03-24T04:09:03;7.18;;;4.05;;
35969;SDS011;22448;51.298;6.430;2023-03-24T04:11:49;5.80;;;3.63;;
35969;SDS011;22448;51.298;6.430;2023-03-24T04:18:21;9.10;;;3.72;;
35969;SDS011;22448;51.298;6.430;2023-03-24T04:20:49;5.20;;;4.10;;
35969;SDS011;22448;51.298;6.430;2023-03-24T04:23:54;6.55;;;3.88;;
35969;SDS011;22448;51.298;6.430;2023-03-24T04:26:39;7.40;;;3.90;;
35969;SDS011;22448;51.298;6.430;2023-03-24T04:34:30;5.22;;;3.17;;
35969;SDS011;22448;51.298;6.430;2023-03-24T04:37:17;4.30;;;3.20;;
35969;SDS011;22448;51.298;6.430;2023-03-24T04:40:02;8.20;;;3.40;;
35969;SDS011;22448;51.298;6.430;2023-03-24T04:42:51;5.03;;;3.10;;
35969;SDS011;22448;51.298;6.430;2023-03-24T04:45:25;5.65;;;2.50;;
35969;SDS011;22448;51.298;6.430;2023-03-24T04:48:11;5.65;;;1.88;;
35969;SDS011;22448;51.298;6.430;2023-03-24T04:50:59;4.63;;;2.28;;
35969;SDS011;22448;51.298;6.430;2023-03-24T04:53:44;4.88;;;1.85;;
35969;SDS011;22448;51.298;6.430;2023-03-24T04:59:20;6.53;;;2.05;;
35969;SDS011;22448;51.298;6.430;2023-03-24T05:01:48;3.03;;;1.30;;
35969;SDS011;22448;51.298;6.430;2023-03-24T05:04:37;5.55;;;1.70;;
35969;SDS011;22448;51.298;6.430;2023-03-24T05:07:25;4.93;;;1.70;;
35969;SDS011;22448;51.298;6.430;2023-03-24T05:09:56;5.15;;;1.65;;
35969;SDS011;22448;51.298;6.430;2023-03-24T05:12:23;5.35;;;1.42;;
35969;SDS011;22448;51.298;6.430;2023-03-24T05:15:09;5.90;;;1.77;;
35969;SDS011;22448;51.298;6.430;2023-03-24T05:17:37;6.85;;;1.77;;
35969;SDS011;22448;51.298;6.430;2023-03-24T05:20:05;6.57;;;1.90;;
35969;SDS011;22448;51.298;6.430;2023-03-24T05:22:38;5.72;;;1.52;;
35969;SDS011;22448;51.298;6.430;2023-03-24T05:25:05;4.05;;;1.20;;
35969;SDS011;22448;51.298;6.430;2023-03-24T05:27:32;9.45;;;1.98;;
35969;SDS011;22448;51.298;6.430;2023-03-24T05:30:10;5.85;;;2.00;;
35969;SDS011;22448;51.298;6.430;2023-03-24T05:32:39;3.45;;;1.50;;
35969;SDS011;22448;51.298;6.430;2023-03-24T05:35:06;8.75;;;1.85;;
35969;SDS011;22448;51.298;6.430;2023-03-24T05:37:34;4.38;;;1.98;;
35969;SDS011;22448;51.298;6.430;2023-03-24T05:40:02;6.35;;;1.70;;
35969;SDS011;22448;51.298;6.430;2023-03-24T05:42:47;8.70;;;1.77;;
35969;SDS011;22448;51.298;6.430;2023-03-24T05:45:16;11.38;;;2.20;;
35969;SDS011;22448;51.298;6.430;2023-03-24T05:47:45;14.77;;;2.30;;
35969;SDS011;22448;51.298;6.430;2023-03-24T05:50:16;10.55;;;2.40;;
35969;SDS011;22448;51.298;6.430;2023-03-24T05:52:43;15.27;;;2.83;;
35969;SDS011;22448;51.298;6.430;2023-03-24T05:55:37;19.27;;;3.10;;
35969;SDS011;22448;51.298;6.430;2023-03-24T05:58:23;14.65;;;2.42;;
35969;SDS011;22448;51.298;6.430;2023-03-24T06:00:53;16.80;;;2.72;;
35969;SDS011;22448;51.298;6.430;2023-03-24T06:03:32;14.48;;;2.60;;
35969;SDS011;22448;51.298;6.430;2023-03-24T06:06:07;14.43;;;2.25;;
35969;SDS011;22448;51.298;6.430;2023-03-24T06:08:40;12.20;;;2.35;;
35969;SDS011;22448;51.298;6.430;2023-03-24T06:11:10;8.75;;;2.47;;
35969;SDS011;22448;51.298;6.430;2023-03-24T06:13:48;8.63;;;1.75;;
35969;SDS011;22448;51.298;6.430;2023-03-24T06:16:15;13.02;;;2.45;;
35969;SDS011;22448;51.298;6.430;2023-03-24T06:18:52;14.65;;;2.78;;
35969;SDS011;22448;51.298;6.430;2023-03-24T06:21:42;17.83;;;2.85;;
35969;SDS011;22448;51.298;6.430;2023-03-24T06:24:12;13.20;;;2.72;;
35969;SDS011;22448;51.298;6.430;2023-03-24T06:26:40;20.35;;;2.85;;
35969;SDS011;22448;51.298;6.430;2023-03-24T06:29:11;12.40;;;2.22;;
35969;SDS011;22448;51.298;6.430;2023-03-24T06:31:38;14.65;;;2.50;;
35969;SDS011;22448;51.298;6.430;2023-03-24T06:34:06;14.13;;;2.47;;
35969;SDS011;22448;51.298;6.430;2023-03-24T06:36:33;13.27;;;2.58;;
35969;SDS011;22448;51.298;6.430;2023-03-24T06:39:01;11.48;;;2.55;;
35969;SDS011;22448;51.298;6.430;2023-03-24T06:41:29;14.20;;;2.72;;
35969;SDS011;22448;51.298;6.430;2023-03-24T06:43:58;9.27;;;2.05;;
35969;SDS011;22448;51.298;6.430;2023-03-24T06:46:26;12.45;;;2.55;;
35969;SDS011;22448;51.298;6.430;2023-03-24T06:48:54;14.20;;;3.00;;
35969;SDS011;22448;51.298;6.430;2023-03-24T06:51:21;13.07;;;2.50;;
35969;SDS011;22448;51.298;6.430;2023-03-24T06:53:48;14.88;;;2.40;;
35969;SDS011;22448;51.298;6.430;2023-03-24T06:56:15;18.08;;;2.83;;
35969;SDS011;22448;51.298;6.430;2023-03-24T06:58:53;14.85;;;2.50;;
35969;SDS011;22448;51.298;6.430;2023-03-24T07:01:25;15.38;;;2.35;;
35969;SDS011;22448;51.298;6.430;2023-03-24T07:03:55;13.43;;;2.65;;
35969;SDS011;22448;51.298;6.430;2023-03-24T07:06:22;16.73;;;2.90;;
35969;SDS011;22448;51.298;6.430;2023-03-24T07:08:53;15.70;;;2.25;;
35969;SDS011;22448;51.298;6.430;2023-03-24T07:11:22;11.30;;;2.00;;
35969;SDS011;22448;51.298;6.430;2023-03-24T07:13:56;12.93;;;2.45;;
35969;SDS011;22448;51.298;6.430;2023-03-24T07:16:24;12.65;;;2.55;;
35969;SDS011;22448;51.298;6.430;2023-03-24T07:19:00;13.48;;;2.45;;
35969;SDS011;22448;51.298;6.430;2023-03-24T07:21:32;15.30;;;2.22;;
35969;SDS011;22448;51.298;6.430;2023-03-24T07:23:59;9.88;;;1.90;;
35969;SDS011;22448;51.298;6.430;2023-03-24T07:26:34;15.82;;;2.47;;
35969;SDS011;22448;51.298;6.430;2023-03-24T07:29:15;11.65;;;2.47;;
35969;SDS011;22448;51.298;6.430;2023-03-24T07:32:01;15.55;;;2.60;;
35969;SDS011;22448;51.298;6.430;2023-03-24T07:34:29;13.00;;;2.22;;
35969;SDS011;22448;51.298;6.430;2023-03-24T07:36:57;15.55;;;2.30;;
35969;SDS011;22448;51.298;6.430;2023-03-24T07:39:26;21.90;;;3.45;;
35969;SDS011;22448;51.298;6.430;2023-03-24T07:41:54;17.67;;;2.72;;
35969;SDS011;22448;51.298;6.430;2023-03-24T07:44:34;13.15;;;3.15;;
35969;SDS011;22448;51.298;6.430;2023-03-24T07:47:01;13.82;;;3.15;;
35969;SDS011;22448;51.298;6.430;2023-03-24T07:49:28;9.75;;;2.40;;
35969;SDS011;22448;51.298;6.430;2023-03-24T07:52:07;17.55;;;3.17;;
35969;SDS011;22448;51.298;6.430;2023-03-24T07:54:37;16.08;;;3.25;;
35969;SDS011;22448;51.298;6.430;2023-03-24T07:57:03;24.10;;;3.22;;
35969;SDS011;22448;51.298;6.430;2023-03-24T07:59:32;25.35;;;3.10;;
35969;SDS011;22448;51.298;6.430;2023-03-24T08:02:10;16.30;;;2.95;;
35969;SDS011;22448;51.298;6.430;2023-03-24T08:04:55;19.10;;;3.78;;
35969;SDS011;22448;51.298;6.430;2023-03-24T08:07:42;16.20;;;3.70;;
35969;SDS011;22448;51.298;6.430;2023-03-24T08:10:15;22.60;;;3.30;;
35969;SDS011;22448;51.298;6.430;2023-03-24T08:12:43;19.65;;;3.33;;
35969;SDS011;22448;51.298;6.430;2023-03-24T08:15:10;14.63;;;3.60;;
35969;SDS011;22448;51.298;6.430;2023-03-24T08:17:37;19.20;;;3.95;;
35969;SDS011;22448;51.298;6.430;2023-03-24T08:20:06;19.67;;;3.70;;
35969;SDS011;22448;51.298;6.430;2023-03-24T08:22:37;22.92;;;4.10;;
35969;SDS011;22448;51.298;6.430;2023-03-24T08:25:07;13.68;;;3.75;;
35969;SDS011;22448;51.298;6.430;2023-03-24T08:27:37;21.10;;;3.65;;
35969;SDS011;22448;51.298;6.430;2023-03-24T08:30:06;18.13;;;4.07;;
35969;SDS011;22448;51.298;6.430;2023-03-24T08:32:36;16.13;;;3.72;;
35969;SDS011;22448;51.298;6.430;2023-03-24T08:35:03;22.63;;;3.85;;
35969;SDS011;22448;51.298;6.430;2023-03-24T08:37:30;17.05;;;3.95;;
35969;SDS011;22448;51.298;6.430;2023-03-24T08:39:57;20.58;;;4.20;;
35969;SDS011;22448;51.298;6.430;2023-03-24T08:42:30;21.75;;;3.28;;
35969;SDS011;22448;51.298;6.430;2023-03-24T08:44:57;16.35;;;3.55;;
35969;SDS011;22448;51.298;6.430;2023-03-24T08:47:24;18.50;;;3.60;;
35969;SDS011;22448;51.298;6.430;2023-03-24T08:49:53;15.50;;;3.50;;
35969;SDS011;22448;51.298;6.430;2023-03-24T08:52:23;20.65;;;3.63;;
35969;SDS011;22448;51.298;6.430;2023-03-24T08:54:51;20.17;;;3.60;;
35969;SDS011;22448;51.298;6.430;2023-03-24T08:57:18;18.38;;;3.55;;
35969;SDS011;22448;51.298;6.430;2023-03-24T08:59:48;20.33;;;3.47;;
35969;SDS011;22448;51.298;6.430;2023-03-24T09:02:16;22.67;;;3.85;;
35969;SDS011;22448;51.298;6.430;2023-03-24T09:04:43;13.38;;;2.95;;
35969;SDS011;22448;51.298;6.430;2023-03-24T09:07:11;19.10;;;3.25;;
35969;SDS011;22448;51.298;6.430;2023-03-24T09:09:38;25.45;;;3.72;;
35969;SDS011;22448;51.298;6.430;2023-03-24T09:12:05;18.02;;;3.13;;
35969;SDS011;22448;51.298;6.430;2023-03-24T09:14:33;20.85;;;3.20;;
35969;SDS011;22448;51.298;6.430;2023-03-24T09:16:59;14.50;;;3.00;;
35969;SDS011;22448;51.298;6.430;2023-03-24T09:19:26;17.55;;;3.70;;
35969;SDS011;22448;51.298;6.430;2023-03-24T09:21:53;20.23;;;3.58;;
35969;SDS011;22448;51.298;6.430;2023-03-24T09:24:20;17.85;;;3.50;;
35969;SDS011;22448;51.298;6.430;2023-03-24T09:26:47;16.90;;;3.03;;
35969;SDS011;22448;51.298;6.430;2023-03-24T09:29:14;19.77;;;3.35;;
35969;SDS011;22448;51.298;6.430;2023-03-24T09:31:41;26.17;;;3.90;;
35969;SDS011;22448;51.298;6.430;2023-03-24T09:34:08;14.07;;;3.25;;
35969;SDS011;22448;51.298;6.430;2023-03-24T09:36:35;20.65;;;3.45;;
35969;SDS011;22448;51.298;6.430;2023-03-24T09:39:02;22.15;;;3.42;;
35969;SDS011;22448;51.298;6.430;2023-03-24T09:41:29;17.45;;;3.22;;
35969;SDS011;22448;51.298;6.430;2023-03-24T09:44:02;17.58;;;2.40;;
35969;SDS011;22448;51.298;6.430;2023-03-24T09:46:43;18.27;;;2.92;;
35969;SDS011;22448;51.298;6.430;2023-03-24T09:49:25;16.15;;;2.80;;
35969;SDS011;22448;51.298;6.430;2023-03-24T09:52:18;19.80;;;2.80;;
35969;SDS011;22448;51.298;6.430;2023-03-24T09:57:57;14.40;;;2.53;;
35969;SDS011;22448;51.298;6.430;2023-03-24T10:00:22;15.57;;;3.33;;
35969;SDS011;22448;51.298;6.430;2023-03-24T10:03:40;13.90;;;3.33;;
35969;SDS011;22448;51.298;6.430;2023-03-24T10:05:55;20.35;;;3.75;;
35969;SDS011;22448;51.298;6.430;2023-03-24T10:08:32;16.85;;;2.63;;
35969;SDS011;22448;51.298;6.430;2023-03-24T10:19:49;12.45;;;2.17;;
35969;SDS011;22448;51.298;6.430;2023-03-24T10:25:13;21.08;;;2.75;;
35969;SDS011;22448;51.298;6.430;2023-03-24T10:27:45;13.82;;;3.58;;
35969;SDS011;22448;51.298;6.430;2023-03-24T10:30:33;12.65;;;4.10;;
35969;SDS011;22448;51.298;6.430;2023-03-24T10:33:05;14.77;;;2.75;;
35969;SDS011;22448;51.298;6.430;2023-03-24T10:35:33;13.50;;;2.85;;
35969;SDS011;22448;51.298;6.430;2023-03-24T10:38:08;10.13;;;2.50;;
35969;SDS011;22448;51.298;6.430;2023-03-24T10:40:44;12.57;;;3.17;;
35969;SDS011;22448;51.298;6.430;2023-03-24T10:43:13;16.00;;;2.97;;
35969;SDS011;22448;51.298;6.430;2023-03-24T10:45:43;14.10;;;2.80;;
35969;SDS011;22448;51.298;6.430;2023-03-24T10:48:15;13.10;;;4.22;;
35969;SDS011;22448;51.298;6.430;2023-03-24T10:51:00;23.00;;;3.50;;
35969;SDS011;22448;51.298;6.430;2023-03-24T10:53:27;14.93;;;3.58;;
35969;SDS011;22448;51.298;6.430;2023-03-24T10:55:54;18.13;;;3.33;;
35969;SDS011;22448;51.298;6.430;2023-03-24T10:58:40;14.60;;;3.38;;
35969;SDS011;22448;51.298;6.430;2023-03-24T11:01:27;15.00;;;3.00;;
35969;SDS011;22448;51.298;6.430;2023-03-24T11:03:58;12.90;;;2.80;;
35969;SDS011;22448;51.298;6.430;2023-03-24T11:06:34;15.23;;;2.80;;
35969;SDS011;22448;51.298;6.430;2023-03-24T11:09:06;21.05;;;3.70;;
35969;SDS011;22448;51.298;6.430;2023-03-24T11:11:47;14.93;;;3.00;;
35969;SDS011;22448;51.298;6.430;2023-03-24T11:14:23;17.20;;;2.85;;
35969;SDS011;22448;51.298;6.430;2023-03-24T11:16:53;13.93;;;2.83;;
35969;SDS011;22448;51.298;6.430;2023-03-24T11:19:35;11.10;;;2.95;;
35969;SDS011;22448;51.298;6.430;2023-03-24T11:22:03;13.90;;;2.90;;
35969;SDS011;22448;51.298;6.430;2023-03-24T11:24:35;12.32;;;2.88;;
35969;SDS011;22448;51.298;6.430;2023-03-24T11:27:03;11.90;;;2.55;;
35969;SDS011;22448;51.298;6.430;2023-03-24T11:29:33;21.52;;;3.22;;
35969;SDS011;22448;51.298;6.430;2023-03-24T11:32:12;13.70;;;2.85;;
35969;SDS011;22448;51.298;6.430;2023-03-24T11:34:53;11.80;;;2.30;;
35969;SDS011;22448;51.298;6.430;2023-03-24T11:37:34;10.88;;;2.78;;
35969;SDS011;22448;51.298;6.430;2023-03-24T11:42:45;13.90;;;2.58;;
35969;SDS011;22448;51.298;6.430;2023-03-24T11:45:44;14.43;;;2.75;;
35969;SDS011;22448;51.298;6.430;2023-03-24T11:48:26;15.77;;;2.63;;
35969;SDS011;22448;51.298;6.430;2023-03-24T11:51:07;10.52;;;2.72;;
35969;SDS011;22448;51.298;6.430;2023-03-24T11:53:42;10.07;;;2.40;;
35969;SDS011;22448;51.298;6.430;2023-03-24T11:59:12;10.27;;;2.35;;
35969;SDS011;22448;51.298;6.430;2023-03-24T12:05:22;17.05;;;2.63;;
35969;SDS011;22448;51.298;6.430;2023-03-24T12:13:33;9.82;;;2.50;;
35969;SDS011;22448;51.298;6.430;2023-03-24T12:16:17;12.13;;;2.80;;
35969;SDS011;22448;51.298;6.430;2023-03-24T12:19:26;13.13;;;2.85;;
35969;SDS011;22448;51.298;6.430;2023-03-24T12:25:25;13.32;;;2.50;;
35969;SDS011;22448;51.298;6.430;2023-03-24T12:39:33;16.35;;;3.33;;
35969;SDS011;22448;51.298;6.430;2023-03-24T12:42:13;17.65;;;3.47;;
35969;SDS011;22448;51.298;6.430;2023-03-24T12:44:45;16.73;;;3.08;;
35969;SDS011;22448;51.298;6.430;2023-03-24T12:50:24;13.02;;;3.05;;
35969;SDS011;22448;51.298;6.430;2023-03-24T12:56:17;10.93;;;3.97;;
35969;SDS011;22448;51.298;6.430;2023-03-24T12:58:49;23.98;;;11.63;;
35969;SDS011;22448;51.298;6.430;2023-03-24T13:01:27;24.92;;;4.95;;
35969;SDS011;22448;51.298;6.430;2023-03-24T13:04:03;22.10;;;4.75;;
35969;SDS011;22448;51.298;6.430;2023-03-24T13:12:12;21.77;;;3.83;;
35969;SDS011;22448;51.298;6.430;2023-03-24T13:14:59;13.98;;;3.33;;
35969;SDS011;22448;51.298;6.430;2023-03-24T13:17:41;8.38;;;3.08;;
35969;SDS011;22448;51.298;6.430;2023-03-24T13:20:21;13.70;;;2.85;;
35969;SDS011;22448;51.298;6.430;2023-03-24T13:22:52;10.68;;;2.55;;
35969;SDS011;22448;51.298;6.430;2023-03-24T13:25:34;11.90;;;2.50;;
35969;SDS011;22448;51.298;6.430;2023-03-24T13:28:09;19.55;;;4.00;;
35969;SDS011;22448;51.298;6.430;2023-03-24T13:30:40;15.57;;;6.32;;
35969;SDS011;22448;51.298;6.430;2023-03-24T13:33:17;14.38;;;5.82;;
35969;SDS011;22448;51.298;6.430;2023-03-24T13:38:25;15.93;;;4.32;;
35969;SDS011;22448;51.298;6.430;2023-03-24T13:41:10;14.10;;;3.75;;
35969;SDS011;22448;51.298;6.430;2023-03-24T13:43:51;18.80;;;7.50;;
35969;SDS011;22448;51.298;6.430;2023-03-24T13:46:27;9.82;;;3.40;;
35969;SDS011;22448;51.298;6.430;2023-03-24T13:48:56;14.70;;;3.00;;
35969;SDS011;22448;51.298;6.430;2023-03-24T13:51:34;14.55;;;1.80;;
35969;SDS011;22448;51.298;6.430;2023-03-24T14:04:48;5.03;;;1.60;;
35969;SDS011;22448;51.298;6.430;2023-03-24T14:10:44;7.28;;;1.75;;
35969;SDS011;22448;51.298;6.430;2023-03-24T14:15:29;3.97;;;1.27;;
35969;SDS011;22448;51.298;6.430;2023-03-24T14:28:46;7.03;;;1.88;;
35969;SDS011;22448;51.298;6.430;2023-03-24T14:31:19;7.68;;;1.95;;
35969;SDS011;22448;51.298;6.430;2023-03-24T14:36:34;7.38;;;2.10;;
35969;SDS011;22448;51.298;6.430;2023-03-24T14:41:34;17.05;;;2.53;;
35969;SDS011;22448;51.298;6.430;2023-03-24T14:44:04;6.13;;;1.77;;
35969;SDS011;22448;51.298;6.430;2023-03-24T14:46:38;6.55;;;1.83;;
35969;SDS011;22448;51.298;6.430;2023-03-24T14:54:36;8.15;;;1.70;;
35969;SDS011;22448;51.298;6.430;2023-03-24T14:57:03;10.45;;;2.10;;
35969;SDS011;22448;51.298;6.430;2023-03-24T14:59:38;10.13;;;2.10;;
35969;SDS011;22448;51.298;6.430;2023-03-24T15:07:40;10.50;;;2.00;;
35969;SDS011;22448;51.298;6.430;2023-03-24T15:10:12;7.60;;;2.03;;
35969;SDS011;22448;51.298;6.430;2023-03-24T15:12:44;40.63;;;17.70;;
35969;SDS011;22448;51.298;6.430;2023-03-24T15:15:17;10.27;;;2.97;;
35969;SDS011;22448;51.298;6.430;2023-03-24T15:17:48;14.32;;;3.75;;
35969;SDS011;22448;51.298;6.430;2023-03-24T15:20:21;11.18;;;3.67;;
35969;SDS011;22448;51.298;6.430;2023-03-24T15:22:50;8.60;;;2.28;;
35969;SDS011;22448;51.298;6.430;2023-03-24T15:25:24;9.50;;;2.28;;
35969;SDS011;22448;51.298;6.430;2023-03-24T15:30:21;12.02;;;3.05;;
35969;SDS011;22448;51.298;6.430;2023-03-24T15:32:48;11.80;;;3.35;;
35969;SDS011;22448;51.298;6.430;2023-03-24T15:35:20;8.68;;;3.92;;
35969;SDS011;22448;51.298;6.430;2023-03-24T15:37:49;11.35;;;4.40;;
35969;SDS011;22448;51.298;6.430;2023-03-24T15:40:30;7.43;;;3.10;;
35969;SDS011;22448;51.298;6.430;2023-03-24T15:43:03;3.63;;;1.30;;
35969;SDS011;22448;51.298;6.430;2023-03-24T15:45:34;5.38;;;1.65;;
35969;SDS011;22448;51.298;6.430;2023-03-24T15:48:15;8.82;;;1.67;;
35969;SDS011;22448;51.298;6.430;2023-03-24T15:50:55;3.10;;;1.33;;
35969;SDS011;22448;51.298;6.430;2023-03-24T15:53:26;8.73;;;0.95;;
35969;SDS011;22448;51.298;6.430;2023-03-24T16:01:37;6.85;;;1.65;;
35969;SDS011;22448;51.298;6.430;2023-03-24T16:06:41;4.90;;;1.40;;
35969;SDS011;22448;51.298;6.430;2023-03-24T16:09:16;5.75;;;1.60;;
35969;SDS011;22448;51.298;6.430;2023-03-24T16:11:47;5.90;;;1.58;;
35969;SDS011;22448;51.298;6.430;2023-03-24T16:14:21;5.15;;;1.27;;
35969;SDS011;22448;51.298;6.430;2023-03-24T16:16:51;6.93;;;1.80;;
35969;SDS011;22448;51.298;6.430;2023-03-24T16:19:22;6.85;;;1.42;;
35969;SDS011;22448;51.298;6.430;2023-03-24T16:21:50;7.50;;;1.70;;
35969;SDS011;22448;51.298;6.430;2023-03-24T16:24:17;8.05;;;1.40;;
35969;SDS011;22448;51.298;6.430;2023-03-24T16:26:44;6.15;;;1.67;;
35969;SDS011;22448;51.298;6.430;2023-03-24T16:29:13;6.60;;;1.45;;
35969;SDS011;22448;51.298;6.430;2023-03-24T16:31:45;4.53;;;1.52;;
35969;SDS011;22448;51.298;6.430;2023-03-24T16:34:15;6.82;;;2.22;;
35969;SDS011;22448;51.298;6.430;2023-03-24T16:36:44;14.60;;;2.55;;
35969;SDS011;22448;51.298;6.430;2023-03-24T16:39:13;4.47;;;1.90;;
35969;SDS011;22448;51.298;6.430;2023-03-24T16:41:42;10.77;;;3.05;;
35969;SDS011;22448;51.298;6.430;2023-03-24T16:44:10;7.22;;;2.53;;
35969;SDS011;22448;51.298;6.430;2023-03-24T16:46:39;3.80;;;1.63;;
35969;SDS011;22448;51.298;6.430;2023-03-24T16:49:09;8.32;;;2.63;;
35969;SDS011;22448;51.298;6.430;2023-03-24T16:51:41;9.68;;;3.05;;
35969;SDS011;22448;51.298;6.430;2023-03-24T16:54:08;10.93;;;1.70;;
35969;SDS011;22448;51.298;6.430;2023-03-24T16:56:35;8.68;;;2.58;;
35969;SDS011;22448;51.298;6.430;2023-03-24T16:59:03;11.90;;;3.92;;
35969;SDS011;22448;51.298;6.430;2023-03-24T17:01:32;10.45;;;2.50;;
35969;SDS011;22448;51.298;6.430;2023-03-24T17:04:04;5.97;;;2.30;;
35969;SDS011;22448;51.298;6.430;2023-03-24T17:06:38;7.30;;;2.08;;
35969;SDS011;22448;51.298;6.430;2023-03-24T17:09:07;9.50;;;2.50;;
35969;SDS011;22448;51.298;6.430;2023-03-24T17:11:37;4.53;;;1.83;;
35969;SDS011;22448;51.298;6.430;2023-03-24T17:14:06;6.03;;;1.33;;
35969;SDS011;22448;51.298;6.430;2023-03-24T17:16:44;5.20;;;0.93;;
35969;SDS011;22448;51.298;6.430;2023-03-24T17:19:13;4.78;;;1.30;;
35969;SDS011;22448;51.298;6.430;2023-03-24T17:21:43;4.30;;;1.27;;
35969;SDS011;22448;51.298;6.430;2023-03-24T17:24:14;9.23;;;1.80;;
35969;SDS011;22448;51.298;6.430;2023-03-24T17:26:42;6.80;;;1.50;;
35969;SDS011;22448;51.298;6.430;2023-03-24T17:29:10;4.82;;;1.67;;
35969;SDS011;22448;51.298;6.430;2023-03-24T17:31:38;3.22;;;1.10;;
35969;SDS011;22448;51.298;6.430;2023-03-24T17:34:11;7.07;;;1.50;;
35969;SDS011;22448;51.298;6.430;2023-03-24T17:36:42;6.93;;;1.60;;
35969;SDS011;22448;51.298;6.430;2023-03-24T17:39:12;4.75;;;1.70;;
35969;SDS011;22448;51.298;6.430;2023-03-24T17:41:41;7.78;;;2.08;;
35969;SDS011;22448;51.298;6.430;2023-03-24T17:44:09;9.43;;;1.88;;
35969;SDS011;22448;51.298;6.430;2023-03-24T17:46:36;7.47;;;1.58;;
35969;SDS011;22448;51.298;6.430;2023-03-24T17:49:03;7.55;;;2.72;;
35969;SDS011;22448;51.298;6.430;2023-03-24T17:51:30;6.80;;;2.13;;
35969;SDS011;22448;51.298;6.430;2023-03-24T17:53:57;7.85;;;3.08;;
35969;SDS011;22448;51.298;6.430;2023-03-24T17:56:25;11.63;;;2.55;;
35969;SDS011;22448;51.298;6.430;2023-03-24T17:58:52;5.18;;;2.25;;
35969;SDS011;22448;51.298;6.430;2023-03-24T18:01:20;8.65;;;2.35;;
35969;SDS011;22448;51.298;6.430;2023-03-24T18:03:47;8.40;;;2.33;;
35969;SDS011;22448;51.298;6.430;2023-03-24T18:06:15;8.40;;;1.98;;
35969;SDS011;22448;51.298;6.430;2023-03-24T18:08:42;6.30;;;1.92;;
35969;SDS011;22448;51.298;6.430;2023-03-24T18:11:11;11.77;;;2.28;;
35969;SDS011;22448;51.298;6.430;2023-03-24T18:13:39;8.80;;;2.17;;